Airfield :
LOGIN :

Register | Disclaimer

   EN    FR    IT 

 










Legend :    VFR   Marginal VFR   IFR   Intensive IFR   Very Intensive IFR
Visi :
Ceiling :
>= 8 km
>= 3000ft
5 to 8 km
1000 to 3000 ft
1500m to 5 km
500 to 1000 ft
800 to 1500m
200 to 500 ft
< 800m
< 200 ft
Symbols :   Thunderstorms  Fog  Heavy snow  Heavy precipitations  Wind > 20 kt
SIGMETs :     Misc.  Thunderstorms  Icing  Turbulence  Mountain Waves  Volcanic Ashes






- Airport Elevation : 74 ft
- IATA code : MRS


LFML - Marseille / Marignane

CURRENT METAR :
  • 262130Z AUTO 17002KT 6000 NSC 08/07 Q1021 TEMPO 4000 BR BKN012

EXPIRED METARs :
  • 262100Z AUTO 09001KT 8000 NSC 10/09 Q1021 NOSIG
  • 262030Z AUTO 23002KT 5000 BR NSC 09/09 Q1021 NOSIG
  • 262000Z AUTO 14003KT 5000 BR NSC 10/09 Q1021 NOSIG
  • 261930Z AUTO 16003KT 5000 BR NSC 10/09 Q1021 NOSIG
  • 261900Z AUTO 14003KT 5000 BR NSC 09/08 Q1021 NOSIG

TAF AMD TAF LFML
Valid from the 26 at 21:00 until the 28 at 03:00 UTC


262108Z 2621/2803 VRB03KT CAVOK TX14/2715Z TN04/2706Z
TEMPO 2621/2711 4000 BR BKN012
PROB40
TEMPO 2702/2709 0800 FG VV///
BECMG 2712/2715 15012KT SCT030
PROB40
TEMPO 2716/2719 16015G25KT
BECMG 2722/2724 VRB04KT
ATIS : +33 4 42 31 15 15



MET'MAP, your aeronautical weather chart ! - Copyright ORBIFLY December 2007 - Disclaimer

ORBIFLY MET'MAP TEAM :

Programming & Development : Alexandra Zaïnal
Concept & original design : Baudouin d'Aumeries
Assistance for programming : Marc-Olivier Méhu
Technical & hardware support : Manuel Goepfert

Contact : metmap@orbifly.com




SOURCES & CREDITS :

   NOAA